Time;durP1;ratioP1;P1;durP2;ratioP2;P2;SDS_P1;SDS_P2;PMS_P1;PMS_P2;Temp;Humidity;BMP_temperature;BMP_pressure;BME280_temperature;BME280_humidity;BME280_pressure;Samples;Min_cycle;Max_cycle;Signal;HPM_P1;HPM_P2
2022/11/16 00:01:11;;;;;;;;;;;11.90;99.90;;;;;;5074236;28;19974;-66
2022/11/16 00:03:39;;;;;;;;;;;11.70;99.90;;;;;;5074827;28;19970;-66
2022/11/16 00:06:08;;;;;;;;;;;11.80;99.90;;;;;;5074162;28;19964;-65
2022/11/16 00:08:36;;;;;;;;;;;11.90;99.90;;;;;;5074813;28;19978;-66
2022/11/16 00:11:05;;;;;;;;;;;12.00;99.90;;;;;;5074104;28;19974;-66
2022/11/16 00:13:33;;;;;;;;;;;11.90;99.90;;;;;;5075076;28;19971;-66
2022/11/16 00:16:01;;;;;;;;;;;11.90;99.90;;;;;;5074550;28;19989;-66
2022/11/16 00:18:30;;;;;;;;;;;12.00;99.90;;;;;;5074712;28;19967;-67
2022/11/16 00:20:58;;;;;;;;;;;12.00;99.90;;;;;;5074090;28;20066;-67
2022/11/16 00:23:27;;;;;;;;;;;12.10;99.90;;;;;;5055622;28;19968;-68
2022/11/16 00:25:54;;;;;;;;;;;12.20;99.90;;;;;;5054412;28;19968;-68
2022/11/16 00:28:22;;;;;;;;;;;12.20;99.90;;;;;;5054718;28;19978;-66
2022/11/16 00:30:57;;;;;;;;;;;12.10;99.90;;;;;;5053940;28;20445;-65
2022/11/16 00:33:25;;;;;;;;;;;12.20;99.90;;;;;;5060344;28;19972;-66
2022/11/16 00:35:54;;;;;;;;;;;12.20;99.90;;;;;;5074311;28;19968;-66
2022/11/16 00:38:21;;;;;;;;;;;12.30;99.90;;;;;;5072388;28;19971;-66
2022/11/16 00:40:49;;;;;;;;;;;12.30;99.90;;;;;;5053809;28;19968;-67
2022/11/16 00:43:17;;;;;;;;;;;12.20;99.90;;;;;;5054259;28;19974;-66
2022/11/16 00:45:45;;;;;;;;;;;12.30;99.90;;;;;;5054134;28;19972;-66
2022/11/16 00:48:13;;;;;;;;;;;12.30;99.90;;;;;;5053712;28;20359;-66
2022/11/16 00:50:40;;;;;;;;;;;12.20;99.90;;;;;;5053054;28;19974;-67
2022/11/16 00:53:12;;;;;;;;;;;12.10;99.90;;;;;;5054041;28;19968;-67
2022/11/16 00:55:40;;;;;;;;;;;12.10;99.90;;;;;;5058087;28;19970;-67
2022/11/16 00:58:07;;;;;;;;;;;12.10;99.90;;;;;;5073842;28;20021;-66
2022/11/16 01:00:35;;;;;;;;;;;12.20;99.90;;;;;;5073086;28;19972;-66
2022/11/16 01:03:03;;;;;;;;;;;12.20;99.90;;;;;;5075851;28;19974;-67
2022/11/16 01:05:31;;;;;;;;;;;12.20;99.90;;;;;;5074269;28;19968;-68
2022/11/16 01:07:59;;;;;;;;;;;12.20;99.90;;;;;;5073428;28;20444;-66
2022/11/16 01:10:28;;;;;;;;;;;12.20;99.90;;;;;;5072771;28;19968;-66
2022/11/16 01:12:55;;;;;;;;;;;12.20;99.90;;;;;;5067109;28;20364;-67
2022/11/16 01:15:24;;;;;;;;;;;12.00;99.90;;;;;;5053965;28;19979;-66
2022/11/16 01:17:52;;;;;;;;;;;12.00;99.90;;;;;;5053571;28;20058;-67
2022/11/16 01:20:21;;;;;;;;;;;11.90;99.90;;;;;;5052632;28;19968;-67
2022/11/16 01:22:49;;;;;;;;;;;11.90;99.90;;;;;;5053996;28;19968;-67
2022/11/16 01:25:17;;;;;;;;;;;11.90;99.90;;;;;;5053905;28;19968;-67
2022/11/16 01:27:46;;;;;;;;;;;12.00;99.90;;;;;;5053863;28;19974;-67
2022/11/16 01:30:15;;;;;;;;;;;12.00;99.90;;;;;;5052416;28;19972;-66
2022/11/16 01:32:43;;;;;;;;;;;12.10;99.90;;;;;;5053122;28;19968;-67
2022/11/16 01:35:14;;;;;;;;;;;12.10;99.90;;;;;;5072526;28;19964;-66
2022/11/16 01:37:42;;;;;;;;;;;12.10;99.90;;;;;;5052912;28;20437;-66
2022/11/16 01:40:11;;;;;;;;;;;12.10;99.90;;;;;;5051910;28;19975;-66
2022/11/16 01:42:39;;;;;;;;;;;12.10;99.90;;;;;;5052800;28;19976;-66
2022/11/16 01:45:16;;;;;;;;;;;12.00;99.90;;;;;;5052737;28;19968;-66
2022/11/16 01:47:43;;;;;;;;;;;12.00;99.90;;;;;;5052965;28;20430;-67
2022/11/16 01:50:13;;;;;;;;;;;12.00;99.90;;;;;;5051692;28;20365;-66
2022/11/16 01:52:43;;;;;;;;;;;12.00;99.90;;;;;;5052579;28;19972;-66
2022/11/16 01:55:12;;;;;;;;;;;11.90;99.90;;;;;;5053389;28;19968;-67
2022/11/16 01:57:41;;;;;;;;;;;11.90;99.90;;;;;;5072349;28;19972;-66
2022/11/16 02:00:12;;;;;;;;;;;12.00;99.90;;;;;;5071526;28;19974;-67
2022/11/16 02:02:39;;;;;;;;;;;12.00;99.90;;;;;;5072339;28;20441;-66
2022/11/16 02:05:07;;;;;;;;;;;12.00;99.90;;;;;;5068428;28;20006;-68
2022/11/16 02:10:32;;;;;;;;;;;11.90;99.90;;;;;;5071098;28;19972;-66
2022/11/16 02:13:04;;;;;;;;;;;11.90;99.90;;;;;;5052124;28;19995;-67
2022/11/16 02:15:36;;;;;;;;;;;11.90;99.90;;;;;;5052253;28;20054;-66
2022/11/16 02:18:11;;;;;;;;;;;11.90;99.90;;;;;;5051987;28;19975;-67
2022/11/16 02:20:44;;;;;;;;;;;11.90;99.90;;;;;;5051776;28;19968;-66
2022/11/16 02:23:20;;;;;;;;;;;11.90;99.90;;;;;;5052161;28;19972;-65
2022/11/16 02:25:53;;;;;;;;;;;11.90;99.90;;;;;;5052132;28;20075;-66
2022/11/16 02:28:27;;;;;;;;;;;11.90;99.90;;;;;;5059976;28;19967;-66
2022/11/16 02:30:57;;;;;;;;;;;11.90;99.90;;;;;;5071090;28;20081;-67
2022/11/16 02:33:28;;;;;;;;;;;12.00;99.90;;;;;;5071682;28;20412;-66
2022/11/16 02:35:57;;;;;;;;;;;12.00;99.90;;;;;;5071697;28;19964;-66
2022/11/16 02:38:27;;;;;;;;;;;12.00;99.90;;;;;;5060391;28;20377;-66
2022/11/16 02:40:57;;;;;;;;;;;12.10;99.90;;;;;;5050923;28;19968;-66
2022/11/16 02:43:26;;;;;;;;;;;12.10;99.90;;;;;;5051713;28;19966;-67
2022/11/16 02:45:55;;;;;;;;;;;12.00;99.90;;;;;;5051787;28;19968;-67
2022/11/16 02:48:26;;;;;;;;;;;12.00;99.90;;;;;;5051432;28;19968;-66
2022/11/16 02:50:54;;;;;;;;;;;12.00;99.90;;;;;;5050806;28;19974;-65
2022/11/16 02:53:22;;;;;;;;;;;11.90;99.90;;;;;;5051694;28;19968;-66
2022/11/16 02:55:50;;;;;;;;;;;11.90;99.90;;;;;;5058412;28;19963;-66
2022/11/16 02:58:20;;;;;;;;;;;11.90;99.90;;;;;;5071664;28;19968;-66
2022/11/16 03:00:50;;;;;;;;;;;11.90;99.90;;;;;;5070749;28;19994;-66
2022/11/16 03:03:23;;;;;;;;;;;11.90;99.90;;;;;;5071620;28;19972;-66
2022/11/16 03:05:55;;;;;;;;;;;11.80;99.90;;;;;;5071376;28;20346;-67
2022/11/16 03:08:24;;;;;;;;;;;11.80;99.90;;;;;;5071555;28;20074;-66
2022/11/16 03:13:39;;;;;;;;;;;11.80;99.90;;;;;;5051575;28;20090;-66
2022/11/16 03:16:09;;;;;;;;;;;11.70;99.90;;;;;;5051522;28;20677;-66
2022/11/16 03:18:38;;;;;;;;;;;11.70;99.90;;;;;;5051245;28;20449;-66
2022/11/16 03:21:10;;;;;;;;;;;11.70;99.90;;;;;;5050450;28;19968;-66
2022/11/16 03:23:38;;;;;;;;;;;11.70;99.90;;;;;;5051567;28;19972;-66
2022/11/16 03:26:07;;;;;;;;;;;11.70;99.90;;;;;;5051418;28;19968;-66
2022/11/16 03:28:36;;;;;;;;;;;11.80;99.90;;;;;;5051891;28;19973;-67
2022/11/16 03:31:07;;;;;;;;;;;11.90;99.90;;;;;;5050690;28;19972;-66
2022/11/16 03:33:38;;;;;;;;;;;12.00;99.90;;;;;;5056684;28;19964;-66
2022/11/16 03:36:10;;;;;;;;;;;11.90;99.90;;;;;;5069485;28;19986;-66
2022/11/16 03:38:40;;;;;;;;;;;11.70;99.90;;;;;;5063100;28;19968;-65
2022/11/16 03:41:08;;;;;;;;;;;11.70;99.90;;;;;;5070317;28;20359;-66
2022/11/16 03:43:36;;;;;;;;;;;11.80;99.90;;;;;;5071288;28;19967;-66
2022/11/16 03:46:05;;;;;;;;;;;11.90;99.90;;;;;;5063239;28;19972;-66
2022/11/16 03:48:34;;;;;;;;;;;11.90;99.90;;;;;;5050958;28;19968;-66
2022/11/16 03:51:02;;;;;;;;;;;11.90;99.90;;;;;;5053428;28;19971;-66
2022/11/16 03:53:31;;;;;;;;;;;12.00;99.90;;;;;;5054894;28;19984;-66
2022/11/16 03:55:59;;;;;;;;;;;12.00;99.90;;;;;;5062287;28;20058;-66
2022/11/16 03:58:27;;;;;;;;;;;12.00;99.90;;;;;;5074506;28;19968;-66
2022/11/16 04:00:54;;;;;;;;;;;11.80;99.90;;;;;;5073814;28;20455;-67
2022/11/16 04:03:22;;;;;;;;;;;11.60;99.90;;;;;;5070069;28;19978;-66
2022/11/16 04:25:17;;;;;;;;;;;11.20;99.90;;;;;;5054356;28;19982;-67
2022/11/16 04:37:47;;;;;;;;;;;11.20;99.90;;;;;;5053634;28;19972;-68
2022/11/16 04:38:51;;;;;;;;;;;11.10;99.90;;;;;;5053964;28;19978;-66
2022/11/16 04:44:20;;;;;;;;;;;11.00;99.90;;;;;;5031653;28;19973;-66
2022/11/16 04:47:06;;;;;;;;;;;11.00;99.90;;;;;;5031453;28;20015;-66
2022/11/16 04:49:34;;;;;;;;;;;11.00;99.90;;;;;;5043692;28;20453;-66
2022/11/16 04:52:02;;;;;;;;;;;11.00;99.90;;;;;;5053716;28;20481;-65
2022/11/16 04:54:29;;;;;;;;;;;11.10;99.90;;;;;;5064732;28;19972;-65
2022/11/16 04:56:58;;;;;;;;;;;11.00;99.90;;;;;;5071092;28;19976;-65
2022/11/16 04:59:26;;;;;;;;;;;11.00;99.90;;;;;;5073755;28;20006;-66
2022/11/16 05:02:09;;;;;;;;;;;11.00;99.90;;;;;;5071976;28;19974;-66
2022/11/16 05:04:37;;;;;;;;;;;10.90;99.90;;;;;;5073288;28;20058;-67
2022/11/16 05:07:09;;;;;;;;;;;10.80;99.90;;;;;;5073034;28;19974;-67
2022/11/16 05:09:40;;;;;;;;;;;10.80;99.90;;;;;;5072889;28;19968;-67
2022/11/16 05:12:09;;;;;;;;;;;10.90;99.90;;;;;;5056756;28;19972;-67
2022/11/16 05:14:37;;;;;;;;;;;10.90;99.90;;;;;;5062344;28;19964;-69
2022/11/16 05:17:05;;;;;;;;;;;10.90;99.90;;;;;;5071463;28;20484;-66
2022/11/16 05:22:18;;;;;;;;;;;10.80;99.90;;;;;;5065367;28;19971;-67
2022/11/16 05:24:46;;;;;;;;;;;10.90;99.90;;;;;;5073074;28;20055;-66
2022/11/16 05:27:16;;;;;;;;;;;10.90;99.90;;;;;;5072272;28;19972;-65
2022/11/16 05:29:44;;;;;;;;;;;10.80;99.90;;;;;;5052294;28;20055;-66
2022/11/16 05:32:12;;;;;;;;;;;10.80;99.90;;;;;;5052681;28;19968;-66
2022/11/16 05:34:40;;;;;;;;;;;10.80;99.90;;;;;;5059577;28;20870;-66
2022/11/16 05:37:08;;;;;;;;;;;10.80;99.90;;;;;;5060356;28;20070;-66
2022/11/16 05:39:36;;;;;;;;;;;10.80;99.90;;;;;;5059341;28;20098;-66
2022/11/16 05:42:04;;;;;;;;;;;10.80;99.90;;;;;;5059911;28;19964;-67
2022/11/16 05:44:34;;;;;;;;;;;10.80;99.90;;;;;;5060383;28;19971;-66
2022/11/16 05:47:02;;;;;;;;;;;10.90;99.90;;;;;;5060518;28;20391;-67
2022/11/16 05:49:29;;;;;;;;;;;10.80;99.90;;;;;;5059021;28;19990;-67
2022/11/16 05:51:57;;;;;;;;;;;10.90;99.90;;;;;;5060938;28;20371;-66
2022/11/16 05:54:25;;;;;;;;;;;10.90;99.90;;;;;;5060620;28;19972;-67
2022/11/16 05:56:54;;;;;;;;;;;10.90;99.90;;;;;;5060724;28;20081;-66
2022/11/16 05:59:22;;;;;;;;;;;10.90;99.90;;;;;;5058918;28;19982;-66
2022/11/16 06:01:52;;;;;;;;;;;10.90;99.90;;;;;;5059839;28;21207;-66
2022/11/16 06:04:19;;;;;;;;;;;10.90;99.90;;;;;;5059936;28;19982;-67
2022/11/16 06:06:51;;;;;;;;;;;10.90;99.90;;;;;;5060791;28;20018;-67
2022/11/16 06:09:19;;;;;;;;;;;10.90;99.90;;;;;;5059697;28;20515;-68
2022/11/16 06:11:47;;;;;;;;;;;10.80;99.90;;;;;;5059899;28;19971;-67
2022/11/16 06:14:15;;;;;;;;;;;10.80;99.90;;;;;;5060032;28;19972;-66
2022/11/16 06:16:42;;;;;;;;;;;10.80;99.90;;;;;;5059950;28;19978;-66
2022/11/16 06:19:11;;;;;;;;;;;10.80;99.90;;;;;;5058393;28;20360;-66
2022/11/16 06:21:39;;;;;;;;;;;10.80;99.90;;;;;;5059024;28;19972;-65
2022/11/16 06:24:08;;;;;;;;;;;10.90;99.90;;;;;;5059781;28;20015;-67
2022/11/16 06:26:36;;;;;;;;;;;10.90;99.90;;;;;;5059794;28;19971;-67
2022/11/16 06:29:04;;;;;;;;;;;10.80;99.90;;;;;;5058857;28;19972;-67
2022/11/16 06:31:32;;;;;;;;;;;10.80;99.90;;;;;;5059219;28;19963;-67
2022/11/16 06:33:59;;;;;;;;;;;10.80;99.90;;;;;;5059843;28;19963;-67
2022/11/16 06:36:28;;;;;;;;;;;10.90;99.90;;;;;;5059765;28;19972;-66
2022/11/16 06:38:58;;;;;;;;;;;10.80;99.90;;;;;;5057994;28;20463;-67
2022/11/16 06:41:26;;;;;;;;;;;10.80;99.90;;;;;;5059836;28;19975;-69
2022/11/16 06:43:53;;;;;;;;;;;10.80;99.90;;;;;;5059867;28;19978;-66
2022/11/16 06:46:23;;;;;;;;;;;10.70;99.90;;;;;;5060078;28;19976;-66
2022/11/16 06:48:51;;;;;;;;;;;10.70;99.90;;;;;;5058485;28;19979;-65
2022/11/16 06:51:18;;;;;;;;;;;10.70;99.90;;;;;;5059323;28;19976;-65
2022/11/16 06:53:47;;;;;;;;;;;10.70;99.90;;;;;;5059738;28;19978;-64
2022/11/16 06:56:15;;;;;;;;;;;10.70;99.90;;;;;;5059924;28;20388;-66
2022/11/16 06:58:43;;;;;;;;;;;10.70;99.90;;;;;;5058643;28;19972;-66
2022/11/16 07:01:11;;;;;;;;;;;10.70;99.90;;;;;;5058697;28;19976;-65
2022/11/16 07:03:39;;;;;;;;;;;10.60;99.90;;;;;;5059259;28;19972;-65
2022/11/16 07:06:07;;;;;;;;;;;10.70;99.90;;;;;;5059125;28;21096;-66
2022/11/16 07:08:35;;;;;;;;;;;10.70;99.90;;;;;;5059764;28;19964;-65
2022/11/16 07:11:05;;;;;;;;;;;10.70;99.90;;;;;;5057655;28;20508;-67
2022/11/16 07:13:33;;;;;;;;;;;10.70;99.90;;;;;;5059164;28;19964;-67
2022/11/16 07:16:02;;;;;;;;;;;10.70;99.90;;;;;;5059844;28;19964;-66
2022/11/16 07:18:32;;;;;;;;;;;10.70;99.90;;;;;;5059667;28;20054;-67
2022/11/16 07:21:04;;;;;;;;;;;10.70;99.90;;;;;;5057525;28;19968;-66
2022/11/16 07:23:32;;;;;;;;;;;10.70;99.90;;;;;;5059194;28;19972;-66
2022/11/16 07:26:00;;;;;;;;;;;10.70;99.90;;;;;;5062575;28;19967;-66
2022/11/16 07:28:29;;;;;;;;;;;10.70;99.90;;;;;;5063747;28;19978;-66
2022/11/16 07:31:00;;;;;;;;;;;10.70;99.90;;;;;;5072769;28;20433;-67
2022/11/16 07:33:32;;;;;;;;;;;10.70;99.90;;;;;;5093732;22;20071;31
2022/11/16 07:36:01;;;;;;;;;;;10.70;99.90;;;;;;5050222;28;19967;-61
2022/11/16 07:38:28;;;;;;;;;;;10.70;99.90;;;;;;5053098;28;19969;-61
2022/11/16 07:40:59;;;;;;;;;;;10.70;99.90;;;;;;5052666;28;20398;-62
2022/11/16 07:43:30;;;;;;;;;;;10.80;99.90;;;;;;5053044;28;19974;-62
2022/11/16 07:46:02;;;;;;;;;;;11.10;99.90;;;;;;5032879;28;20397;-62
2022/11/16 07:48:49;;;;;;;;;;;11.30;99.90;;;;;;5033404;28;19984;-62
2022/11/16 07:51:18;;;;;;;;;;;11.60;99.90;;;;;;5034300;28;20071;-61
2022/11/16 07:53:46;;;;;;;;;;;11.80;99.90;;;;;;5034844;28;19978;-62
2022/11/16 07:56:13;;;;;;;;;;;12.10;99.90;;;;;;5034563;28;19975;-62
2022/11/16 07:58:42;;;;;;;;;;;12.30;99.90;;;;;;5034565;28;20437;-61
2022/11/16 08:01:12;;;;;;;;;;;12.50;99.90;;;;;;5034184;28;19975;-62
2022/11/16 08:03:39;;;;;;;;;;;12.60;99.90;;;;;;5034149;28;19975;-62
2022/11/16 08:06:11;;;;;;;;;;;12.70;99.90;;;;;;5034366;28;19964;-62
2022/11/16 08:08:38;;;;;;;;;;;12.80;99.90;;;;;;5034535;28;19973;-62
2022/11/16 08:11:08;;;;;;;;;;;12.80;99.90;;;;;;5033654;28;19975;-62
2022/11/16 08:13:37;;;;;;;;;;;12.80;99.90;;;;;;5034062;28;19968;-62
2022/11/16 08:16:08;;;;;;;;;;;13.00;99.90;;;;;;5034319;28;20467;-62
2022/11/16 08:18:37;;;;;;;;;;;13.30;99.90;;;;;;5034398;28;19975;-62
2022/11/16 08:21:05;;;;;;;;;;;13.30;99.90;;;;;;5033484;28;19998;-62
2022/11/16 08:23:33;;;;;;;;;;;13.20;99.90;;;;;;5033778;28;19996;-62
2022/11/16 08:26:02;;;;;;;;;;;12.90;99.90;;;;;;5034386;28;19976;-62
2022/11/16 08:28:31;;;;;;;;;;;12.70;99.90;;;;;;5034299;28;19977;-62
2022/11/16 08:30:59;;;;;;;;;;;12.50;99.90;;;;;;5033683;28;19972;-62
2022/11/16 08:33:29;;;;;;;;;;;12.40;99.90;;;;;;5033766;28;19976;-62
2022/11/16 08:35:58;;;;;;;;;;;12.20;99.90;;;;;;4994408;28;19972;-62
2022/11/16 08:38:26;;;;;;;;;;;12.10;99.90;;;;;;4994647;28;20403;-62
2022/11/16 08:40:55;;;;;;;;;;;12.10;99.90;;;;;;4994257;28;19973;-62
2022/11/16 08:43:23;;;;;;;;;;;12.30;99.90;;;;;;4994442;28;19969;-62
2022/11/16 08:45:52;;;;;;;;;;;12.70;99.90;;;;;;4994581;28;19973;-62
2022/11/16 08:48:19;;;;;;;;;;;13.10;99.90;;;;;;4994549;28;20071;-62
2022/11/16 08:50:48;;;;;;;;;;;13.40;99.90;;;;;;4993715;28;19968;-62
2022/11/16 08:53:36;;;;;;;;;;;13.50;99.90;;;;;;4994207;28;19969;-62
2022/11/16 08:56:04;;;;;;;;;;;13.20;99.90;;;;;;4994210;28;19969;-62
2022/11/16 08:58:32;;;;;;;;;;;12.90;99.90;;;;;;4994413;28;19976;-62
2022/11/16 09:01:06;;;;;;;;;;;12.70;99.90;;;;;;4993531;28;19977;-62
2022/11/16 09:03:34;;;;;;;;;;;12.50;99.90;;;;;;4993719;28;19972;-62
2022/11/16 09:06:03;;;;;;;;;;;12.40;99.90;;;;;;4994146;28;19969;-62
2022/11/16 09:08:30;;;;;;;;;;;12.30;99.90;;;;;;4994325;28;19976;-62
2022/11/16 09:10:59;;;;;;;;;;;12.30;99.90;;;;;;4993426;28;20469;-62
2022/11/16 09:13:26;;;;;;;;;;;12.30;99.90;;;;;;4993863;28;20039;-62
2022/11/16 09:15:57;;;;;;;;;;;12.50;99.90;;;;;;4993946;28;19973;-62
2022/11/16 09:18:25;;;;;;;;;;;12.70;99.90;;;;;;4993832;28;20342;-62
2022/11/16 09:20:53;;;;;;;;;;;12.80;99.90;;;;;;4993056;28;19969;-62
2022/11/16 09:23:23;;;;;;;;;;;12.70;99.90;;;;;;4993635;28;20510;-62
2022/11/16 09:25:52;;;;;;;;;;;12.70;99.90;;;;;;4993824;28;19973;-62
2022/11/16 09:28:20;;;;;;;;;;;12.60;99.90;;;;;;4993601;28;19970;-62
2022/11/16 09:30:49;;;;;;;;;;;12.50;99.90;;;;;;4993052;28;19977;-62
2022/11/16 09:33:17;;;;;;;;;;;12.30;99.90;;;;;;4993505;28;19973;-62
2022/11/16 09:35:45;;;;;;;;;;;12.30;99.90;;;;;;5022306;28;20055;-62
2022/11/16 09:38:13;;;;;;;;;;;12.30;99.90;;;;;;5021989;28;19965;-62
2022/11/16 09:40:56;;;;;;;;;;;12.30;99.90;;;;;;5032175;28;19977;-62
2022/11/16 09:43:31;;;;;;;;;;;12.40;99.90;;;;;;5032733;28;19973;-62
2022/11/16 09:46:02;;;;;;;;;;;12.60;99.90;;;;;;5032915;28;20059;-62
2022/11/16 09:48:31;;;;;;;;;;;12.80;99.90;;;;;;5032236;28;20424;-62
2022/11/16 09:51:06;;;;;;;;;;;12.90;99.90;;;;;;5031688;28;19968;-62
2022/11/16 09:53:36;;;;;;;;;;;13.00;99.90;;;;;;5032370;28;20004;-62
2022/11/16 09:56:06;;;;;;;;;;;13.00;99.90;;;;;;5032645;28;20512;-62
2022/11/16 09:58:38;;;;;;;;;;;12.90;99.90;;;;;;5032742;28;20011;-62
2022/11/16 10:01:14;;;;;;;;;;;12.90;99.90;;;;;;5031766;28;20345;-62
2022/11/16 10:03:43;;;;;;;;;;;12.90;99.90;;;;;;5032403;28;20022;-62
2022/11/16 10:06:16;;;;;;;;;;;12.80;99.90;;;;;;5032183;28;20352;-62
2022/11/16 10:08:45;;;;;;;;;;;12.80;99.90;;;;;;5012679;28;20051;-62
2022/11/16 10:11:31;;;;;;;;;;;12.80;99.90;;;;;;5012083;28;19969;-62
2022/11/16 10:14:05;;;;;;;;;;;12.80;99.90;;;;;;5012428;28;20392;-62
2022/11/16 10:16:38;;;;;;;;;;;12.90;99.90;;;;;;5012595;28;19991;-62
2022/11/16 10:19:10;;;;;;;;;;;13.00;99.90;;;;;;5012524;28;19973;-62
2022/11/16 10:21:43;;;;;;;;;;;13.00;99.90;;;;;;5012184;28;19976;-62
2022/11/16 10:24:24;;;;;;;;;;;13.00;99.90;;;;;;5012521;28;19973;-62
2022/11/16 10:26:59;;;;;;;;;;;13.00;99.90;;;;;;5012548;28;19976;-62
2022/11/16 10:29:35;;;;;;;;;;;13.00;99.90;;;;;;5012209;28;19969;-62
2022/11/16 10:32:08;;;;;;;;;;;12.90;99.90;;;;;;5013096;28;19969;-62
2022/11/16 10:34:39;;;;;;;;;;;12.60;99.90;;;;;;5016445;28;19964;-62
2022/11/16 10:37:10;;;;;;;;;;;12.50;99.90;;;;;;5032244;28;19987;-62
2022/11/16 10:39:39;;;;;;;;;;;12.40;99.90;;;;;;5031467;28;20512;-62
2022/11/16 10:42:11;;;;;;;;;;;12.40;99.90;;;;;;5031914;28;20452;-62
2022/11/16 10:44:41;;;;;;;;;;;12.30;99.90;;;;;;5032062;28;19969;-62
2022/11/16 10:47:14;;;;;;;;;;;12.30;99.90;;;;;;5031891;28;19972;-63
2022/11/16 10:49:47;;;;;;;;;;;12.30;99.90;;;;;;5031293;28;20403;-62
2022/11/16 10:52:15;;;;;;;;;;;12.20;99.90;;;;;;5031819;28;20418;-62
2022/11/16 10:54:43;;;;;;;;;;;12.20;99.90;;;;;;5031918;28;20576;-62
2022/11/16 10:57:13;;;;;;;;;;;12.10;99.90;;;;;;5031806;28;19968;-62
2022/11/16 10:59:42;;;;;;;;;;;12.20;99.90;;;;;;5032417;28;20046;-62
2022/11/16 11:02:30;;;;;;;;;;;12.30;99.90;;;;;;5036019;28;19968;-62
2022/11/16 11:05:06;;;;;;;;;;;12.20;99.90;;;;;;5035414;28;19964;-62
2022/11/16 11:07:36;;;;;;;;;;;12.20;99.90;;;;;;5035687;28;19968;-62
2022/11/16 11:10:05;;;;;;;;;;;12.20;99.90;;;;;;5034974;28;19982;-64
2022/11/16 11:12:40;;;;;;;;;;;12.40;99.90;;;;;;5036087;28;20176;-62
2022/11/16 11:15:21;;;;;;;;;;;12.70;99.90;;;;;;5035886;28;20022;-62
2022/11/16 11:18:07;;;;;;;;;;;12.90;99.90;;;;;;5035675;28;19968;-62
2022/11/16 11:20:35;;;;;;;;;;;13.00;99.90;;;;;;5034522;28;19972;-62
2022/11/16 11:23:12;;;;;;;;;;;13.00;99.90;;;;;;5035532;28;20019;-62
2022/11/16 11:25:41;;;;;;;;;;;13.00;99.90;;;;;;5035367;28;19968;-61
2022/11/16 11:28:17;;;;;;;;;;;12.90;99.90;;;;;;5035366;28;20426;-62
2022/11/16 11:30:51;;;;;;;;;;;12.90;99.90;;;;;;5034499;28;19969;-62
2022/11/16 11:33:20;;;;;;;;;;;12.80;99.90;;;;;;5035302;28;19998;-62
2022/11/16 11:35:56;;;;;;;;;;;12.60;99.90;;;;;;5034596;28;20376;-62
2022/11/16 11:38:25;;;;;;;;;;;12.60;99.90;;;;;;5035101;28;20473;-63
2022/11/16 11:40:57;;;;;;;;;;;12.50;99.90;;;;;;5034271;28;19975;-62
2022/11/16 11:43:26;;;;;;;;;;;12.50;99.90;;;;;;5034923;28;19976;-62
2022/11/16 11:45:56;;;;;;;;;;;12.50;99.90;;;;;;5035025;28;19979;-62
2022/11/16 11:48:28;;;;;;;;;;;12.50;99.90;;;;;;5034878;28;19973;-63
2022/11/16 11:50:59;;;;;;;;;;;12.50;99.90;;;;;;5034023;28;19973;-62
2022/11/16 11:53:39;;;;;;;;;;;12.50;99.90;;;;;;5034818;28;20071;-61
2022/11/16 11:56:09;;;;;;;;;;;12.60;99.90;;;;;;5035001;28;19969;-62
2022/11/16 11:58:39;;;;;;;;;;;12.50;99.90;;;;;;5034783;28;19967;-62
2022/11/16 12:01:22;;;;;;;;;;;12.50;99.90;;;;;;5034010;28;20456;-62
2022/11/16 12:04:16;;;;;;;;;;;12.50;99.90;;;;;;5033493;28;20456;-62
2022/11/16 12:06:52;;;;;;;;;;;12.50;99.90;;;;;;4949823;28;19966;-62
2022/11/16 12:09:25;;;;;;;;;;;12.50;99.90;;;;;;5014562;28;19969;-62
2022/11/16 12:11:58;;;;;;;;;;;12.50;99.90;;;;;;5013674;28;19972;-62
2022/11/16 12:14:32;;;;;;;;;;;12.50;99.90;;;;;;5014660;28;19979;-62
2022/11/16 12:17:04;;;;;;;;;;;12.40;99.90;;;;;;5014794;28;20456;-62
2022/11/16 12:19:58;;;;;;;;;;;12.40;99.90;;;;;;5014296;28;19983;-62
2022/11/16 12:22:36;;;;;;;;;;;12.50;99.90;;;;;;5015051;28;19969;-62
2022/11/16 12:25:09;;;;;;;;;;;12.80;99.90;;;;;;5014456;28;19973;-62
2022/11/16 12:27:44;;;;;;;;;;;12.90;99.90;;;;;;5014567;28;19975;-62
2022/11/16 12:30:14;;;;;;;;;;;13.00;99.90;;;;;;5013608;28;20020;-62
2022/11/16 12:32:51;;;;;;;;;;;13.10;99.90;;;;;;5014504;28;20438;-62
2022/11/16 12:35:27;;;;;;;;;;;12.90;99.90;;;;;;5024082;28;20332;-62
2022/11/16 12:37:59;;;;;;;;;;;12.90;99.90;;;;;;5034056;28;19968;-62
2022/11/16 12:40:37;;;;;;;;;;;12.90;99.90;;;;;;5033271;28;19968;-62
2022/11/16 12:43:10;;;;;;;;;;;12.80;99.90;;;;;;5034142;28;19972;-62
2022/11/16 12:45:46;;;;;;;;;;;12.70;99.90;;;;;;5033774;28;19973;-62
2022/11/16 12:48:34;;;;;;;;;;;12.70;99.90;;;;;;5034076;28;19978;-62
2022/11/16 12:51:04;;;;;;;;;;;12.60;99.90;;;;;;5032837;28;19975;-62
2022/11/16 12:53:46;;;;;;;;;;;12.60;99.90;;;;;;5033701;28;20051;-62
2022/11/16 12:56:18;;;;;;;;;;;12.50;99.90;;;;;;5033575;28;20334;-62
2022/11/16 12:58:54;;;;;;;;;;;12.60;99.90;;;;;;5033558;28;19972;-62
2022/11/16 13:01:26;;;;;;;;;;;12.70;99.90;;;;;;5032980;28;19983;-62
2022/11/16 13:03:55;;;;;;;;;;;12.80;99.90;;;;;;5033408;28;20019;-62
2022/11/16 13:06:26;;;;;;;;;;;12.80;99.90;;;;;;5033189;28;19969;-62
2022/11/16 13:09:00;;;;;;;;;;;12.80;99.90;;;;;;5033320;28;19968;-62
2022/11/16 13:11:30;;;;;;;;;;;13.00;99.90;;;;;;5032780;28;19978;-62
2022/11/16 13:13:59;;;;;;;;;;;13.00;99.90;;;;;;5033243;28;19968;-61
2022/11/16 13:16:29;;;;;;;;;;;13.00;99.90;;;;;;5033397;28;19969;-62
2022/11/16 13:18:57;;;;;;;;;;;13.00;99.90;;;;;;5033004;28;19972;-63
2022/11/16 13:21:31;;;;;;;;;;;13.00;99.90;;;;;;5032156;28;20363;-62
2022/11/16 13:24:06;;;;;;;;;;;13.10;99.90;;;;;;5032683;28;19979;-62
2022/11/16 13:26:38;;;;;;;;;;;13.10;99.90;;;;;;5033211;28;20066;-62
2022/11/16 13:29:12;;;;;;;;;;;13.10;99.90;;;;;;5032940;28;20451;-62
2022/11/16 13:31:47;;;;;;;;;;;13.10;99.90;;;;;;5032217;28;19972;-62
2022/11/16 13:34:20;;;;;;;;;;;13.10;99.90;;;;;;5128407;22;19979;-64
2022/11/16 13:36:47;;;;;;;;;;;13.00;99.90;;;;;;5038766;28;19968;-64
2022/11/16 13:39:16;;;;;;;;;;;12.90;99.90;;;;;;5066433;28;19974;-64
2022/11/16 13:41:49;;;;;;;;;;;12.90;99.90;;;;;;5072096;28;20528;-64
2022/11/16 13:44:25;;;;;;;;;;;13.00;99.90;;;;;;5072545;28;20089;-64
2022/11/16 13:46:55;;;;;;;;;;;13.00;99.90;;;;;;5072557;28;20086;-64
2022/11/16 13:49:26;;;;;;;;;;;13.00;99.90;;;;;;5072464;28;20026;-64
2022/11/16 13:51:55;;;;;;;;;;;12.90;99.90;;;;;;5071858;28;20007;-63
2022/11/16 13:54:29;;;;;;;;;;;12.90;99.90;;;;;;5072334;28;19972;-63
2022/11/16 13:57:20;;;;;;;;;;;12.80;99.90;;;;;;5072357;28;19967;-66
2022/11/16 13:59:48;;;;;;;;;;;12.70;99.90;;;;;;5071762;28;20074;-66
2022/11/16 14:02:29;;;;;;;;;;;12.60;99.90;;;;;;5072302;28;20352;-66
2022/11/16 14:04:58;;;;;;;;;;;12.60;99.90;;;;;;5064314;28;20408;-66
2022/11/16 14:07:34;;;;;;;;;;;12.60;99.90;;;;;;5050138;28;19974;-66
2022/11/16 14:10:04;;;;;;;;;;;12.60;99.90;;;;;;5031738;28;19979;-66
2022/11/16 14:12:55;;;;;;;;;;;12.50;99.90;;;;;;5031952;28;20290;-66
2022/11/16 14:15:27;;;;;;;;;;;12.50;99.90;;;;;;5032329;28;20066;-66
2022/11/16 14:17:59;;;;;;;;;;;12.50;99.90;;;;;;5032212;28;20063;-66
2022/11/16 14:20:31;;;;;;;;;;;12.40;99.90;;;;;;5031202;28;20447;-66
2022/11/16 14:23:10;;;;;;;;;;;12.30;99.90;;;;;;5032247;28;20023;-66
2022/11/16 14:25:39;;;;;;;;;;;12.30;99.90;;;;;;5031903;28;20434;-66
2022/11/16 14:28:16;;;;;;;;;;;12.30;99.90;;;;;;5032044;28;20071;-66
2022/11/16 14:30:49;;;;;;;;;;;12.30;99.90;;;;;;5031354;28;19975;-66
2022/11/16 14:33:27;;;;;;;;;;;12.30;99.90;;;;;;5031888;28;19968;-66
2022/11/16 14:35:55;;;;;;;;;;;12.30;99.90;;;;;;5052772;28;19968;-66
2022/11/16 14:38:28;;;;;;;;;;;12.30;99.90;;;;;;5035699;28;20010;-66
2022/11/16 14:40:57;;;;;;;;;;;12.30;99.90;;;;;;5031045;28;19975;-66
2022/11/16 14:43:27;;;;;;;;;;;12.30;99.90;;;;;;5031821;28;19979;-66
2022/11/16 14:45:58;;;;;;;;;;;12.30;99.90;;;;;;5031754;28;19972;-66
2022/11/16 14:48:27;;;;;;;;;;;12.30;99.90;;;;;;5031849;28;20421;-66
2022/11/16 14:51:06;;;;;;;;;;;12.20;99.90;;;;;;5030686;28;20361;-66
2022/11/16 14:53:34;;;;;;;;;;;12.30;99.90;;;;;;5031637;28;20452;-66
2022/11/16 14:56:07;;;;;;;;;;;12.30;99.90;;;;;;5031631;28;20442;-66
2022/11/16 14:58:35;;;;;;;;;;;12.30;99.90;;;;;;5031737;28;19973;-66
2022/11/16 15:01:04;;;;;;;;;;;12.30;99.90;;;;;;5030708;28;20349;-66
2022/11/16 15:03:35;;;;;;;;;;;12.30;99.90;;;;;;5031593;28;20011;-66
2022/11/16 15:06:04;;;;;;;;;;;12.20;99.90;;;;;;5054961;28;20022;-67
2022/11/16 15:08:34;;;;;;;;;;;12.10;99.90;;;;;;5032794;28;20419;-67
2022/11/16 15:11:02;;;;;;;;;;;12.00;99.90;;;;;;5030535;28;19975;-67
2022/11/16 15:13:29;;;;;;;;;;;12.00;99.90;;;;;;5031474;28;19968;-66
2022/11/16 15:16:10;;;;;;;;;;;11.90;99.90;;;;;;5031361;28;20449;-67